createdAt,value
2023-01-22T00:43:55.365Z,101265.19
2023-01-22T02:22:58.173Z,101318.04
2023-01-22T02:26:02.024Z,101318.45
2023-01-22T02:29:10.204Z,101315.92
2023-01-22T02:32:04.974Z,101314.52
2023-01-22T02:35:15.644Z,101313.53
2023-01-22T02:38:31.501Z,101316.80
2023-01-22T02:41:02.191Z,101317.52
2023-01-22T02:48:28.491Z,101319.04
2023-01-22T02:58:38.987Z,101319.11
2023-01-22T03:01:21.715Z,101328.16
2023-01-22T03:03:52.582Z,101334.77
2023-01-22T03:06:27.985Z,101336.45
2023-01-22T03:09:27.917Z,101338.81
2023-01-22T03:12:19.325Z,101344.91
2023-01-22T03:15:22.455Z,101352.97
2023-01-22T03:18:24.269Z,101356.86
2023-01-22T03:21:20.325Z,101360.28
2023-01-22T03:53:15.213Z,101375.98
2023-01-22T03:56:18.763Z,101380.75
2023-01-22T04:00:59.730Z,101382.08
2023-01-22T04:03:39.301Z,101382.22
2023-01-22T04:07:34.531Z,101382.91
2023-01-22T04:13:58.228Z,101388.46
2023-01-22T04:17:02.394Z,101395.27
2023-01-22T04:19:45.660Z,101391.67
2023-01-22T05:09:28.707Z,101432.73
2023-01-22T06:06:18.172Z,101481.14
2023-01-22T06:09:28.762Z,101483.59
2023-01-22T06:12:35.365Z,101481.89
2023-01-22T06:15:07.826Z,101481.73
2023-01-22T06:18:20.032Z,101482.65
2023-01-22T06:21:19.433Z,101491.92
2023-01-22T06:24:23.018Z,101494.54
2023-01-22T06:35:57.812Z,101493.03
2023-01-22T06:40:28.399Z,101502.73
2023-01-22T06:54:39.363Z,101510.56
2023-01-22T06:58:54.184Z,101529.83
2023-01-22T07:01:41.384Z,101533.84
2023-01-22T07:04:33.175Z,101537.29
2023-01-22T07:07:07.789Z,101537.16
2023-01-22T07:09:47.772Z,101542.16
2023-01-22T07:12:58.690Z,101547.42
2023-01-22T07:15:36.124Z,101555.48
2023-01-22T07:18:24.832Z,101560.48
2023-01-22T07:21:20.360Z,101561.67
2023-01-22T07:26:49.504Z,101560.10
2023-01-22T07:29:54.258Z,101563.67
2023-01-22T07:32:32.846Z,101561.73
2023-01-22T07:35:09.761Z,101566.39
2023-01-22T07:38:09.986Z,101570.89
2023-01-22T07:40:42.767Z,101571.96
2023-01-22T07:43:18.823Z,101573.09
2023-01-22T07:49:44.710Z,101579.45
2023-01-22T07:52:42.938Z,101579.60
2023-01-22T07:55:33.491Z,101583.70
2023-01-22T07:58:14.746Z,101586.37
2023-01-22T08:00:52.483Z,101591.52
2023-01-22T08:03:25.734Z,101594.55
2023-01-22T08:06:22.934Z,101599.66
2023-01-22T08:19:02.395Z,101595.88
2023-01-22T08:28:26.977Z,101604.38
2023-01-22T08:31:28.779Z,101610.58
2023-01-22T08:34:24.360Z,101610.98
2023-01-22T08:49:58.277Z,101625.29
2023-01-22T08:53:16.926Z,101634.12
2023-01-22T09:23:27.090Z,101659.00
2023-01-22T09:26:18.319Z,101658.21
2023-01-22T09:29:31.648Z,101655.66
2023-01-22T09:32:30.361Z,101658.23
2023-01-22T09:35:10.106Z,101657.34
2023-01-22T09:37:53.695Z,101661.06
2023-01-22T09:44:13.111Z,101658.30
2023-01-22T09:48:21.986Z,101662.31
2023-01-22T10:02:35.665Z,101669.44
2023-01-22T10:06:29.646Z,101671.38
2023-01-22T10:26:41.795Z,101666.19
2023-01-22T10:29:42.537Z,101659.71
2023-01-22T10:32:44.133Z,101656.73
2023-01-22T11:05:45.329Z,101648.07
2023-01-22T11:17:21.459Z,101655.34
2023-01-22T11:25:39.692Z,101648.55
2023-01-22T11:29:14.284Z,101650.38
2023-01-22T11:33:14.295Z,101650.48
2023-01-22T11:36:22.999Z,101644.81
2023-01-22T11:39:37.896Z,101645.20
2023-01-22T11:42:36.728Z,101642.04
2023-01-22T11:45:32.187Z,101639.76
2023-01-22T11:48:35.004Z,101640.31
2023-01-22T11:51:19.920Z,101638.91
2023-01-22T11:54:07.049Z,101637.05
2023-01-22T11:56:59.724Z,101639.13
2023-01-22T11:59:41.347Z,101636.20
2023-01-22T12:02:32.628Z,101635.55
2023-01-22T12:05:21.889Z,101637.77
2023-01-22T12:08:20.518Z,101636.52
2023-01-22T12:11:35.900Z,101638.23
2023-01-22T12:14:39.472Z,101641.66
2023-01-22T12:17:33.817Z,101643.07
2023-01-22T12:20:20.562Z,101647.95
2023-01-22T12:23:06.236Z,101646.55
2023-01-22T12:25:54.666Z,101644.91
2023-01-22T12:28:29.936Z,101648.23
2023-01-22T12:31:15.451Z,101649.69
2023-01-22T12:33:44.618Z,101652.30
2023-01-22T12:36:18.643Z,101648.91
2023-01-22T12:39:11.943Z,101648.57
2023-01-22T12:41:51.285Z,101652.38
2023-01-22T12:44:38.386Z,101655.42
2023-01-22T12:47:13.461Z,101659.39
2023-01-22T12:49:52.546Z,101662.81
2023-01-22T12:52:29.160Z,101663.58
2023-01-22T12:54:59.085Z,101663.20
2023-01-22T12:57:39.546Z,101662.52
2023-01-22T13:00:25.971Z,101660.97
2023-01-22T13:02:55.467Z,101657.39
2023-01-22T13:05:28.476Z,101661.59
2023-01-22T13:08:28.234Z,101662.67
2023-01-22T13:11:01.128Z,101657.76
2023-01-22T13:13:33.082Z,101662.70
2023-01-22T13:16:07.727Z,101665.23
2023-01-22T13:18:44.808Z,101669.72
2023-01-22T13:25:32.119Z,101673.96
2023-01-22T13:28:05.694Z,101674.63
2023-01-22T13:30:39.517Z,101669.29
2023-01-22T13:33:19.089Z,101665.22
2023-01-22T13:35:49.458Z,101660.82
2023-01-22T13:43:36.952Z,101655.27
2023-01-22T13:51:26.281Z,101674.31
2023-01-22T14:08:47.772Z,101696.55
2023-01-22T14:13:48.256Z,101700.13
2023-01-22T14:19:57.916Z,101704.17
2023-01-22T14:23:06.990Z,101711.48
2023-01-22T14:56:21.853Z,101745.45
2023-01-22T15:22:26.383Z,101764.30
2023-01-22T15:30:07.590Z,101769.98
2023-01-22T15:33:04.740Z,101771.87
2023-01-22T15:36:43.423Z,101772.16
2023-01-22T15:46:59.608Z,101781.57
2023-01-22T15:53:49.999Z,101785.20
2023-01-22T15:56:44.524Z,101786.59
2023-01-22T16:00:19.099Z,101787.23
2023-01-22T16:03:11.466Z,101784.52
2023-01-22T16:05:45.212Z,101790.55
2023-01-22T16:08:23.676Z,101792.98
2023-01-22T16:11:10.649Z,101799.05
2023-01-22T16:13:51.333Z,101801.40
2023-01-22T16:19:39.651Z,101805.17
2023-01-22T16:22:22.982Z,101808.04
2023-01-22T16:25:07.855Z,101813.33
2023-01-22T16:28:28.845Z,101820.73
2023-01-22T16:31:29.987Z,101824.98
2023-01-22T16:34:16.492Z,101825.57
2023-01-22T16:36:56.524Z,101826.17
2023-01-22T16:39:35.779Z,101826.55
2023-01-22T16:42:22.483Z,101825.27
2023-01-22T16:44:58.670Z,101821.44
2023-01-22T16:47:32.752Z,101825.61
2023-01-22T16:50:24.951Z,101828.23
2023-01-22T16:53:05.078Z,101828.83
2023-01-22T17:12:21.158Z,101843.91
2023-01-22T18:03:10.214Z,101881.23
2023-01-22T18:10:49.901Z,101885.95
2023-01-22T18:30:02.256Z,101890.24
2023-01-22T18:32:52.793Z,101881.71
2023-01-22T18:35:34.391Z,101880.95
2023-01-22T18:38:17.043Z,101883.02
2023-01-22T18:41:02.616Z,101888.16
2023-01-22T18:43:47.014Z,101890.31
2023-01-22T18:46:32.798Z,101892.05
2023-01-22T18:49:34.873Z,101896.14
2023-01-22T18:52:33.441Z,101896.95
2023-01-22T18:55:34.770Z,101897.41
2023-01-22T18:58:42.760Z,101893.76
2023-01-22T19:02:00.904Z,101896.30
2023-01-22T19:05:53.028Z,101894.94
2023-01-22T19:08:48.214Z,101901.31
2023-01-22T19:17:06.916Z,101897.39
2023-01-22T19:23:14.653Z,101898.32
2023-01-22T19:35:46.708Z,101911.61
2023-01-22T19:40:49.719Z,101914.60
2023-01-22T19:43:59.347Z,101915.83
2023-01-22T19:47:14.307Z,101916.83
2023-01-22T19:50:15.541Z,101919.36
2023-01-22T19:53:33.386Z,101924.08
2023-01-22T20:00:44.313Z,101929.55
2023-01-22T20:04:49.231Z,101927.58
2023-01-22T20:08:04.079Z,101932.44
2023-01-22T20:16:28.092Z,101938.39
2023-01-22T20:34:25.022Z,101938.98
2023-01-22T22:45:12.677Z,102013.35
2023-01-22T23:28:07.339Z,102044.88
